Accueil
METAR-TAF:

METAR-TAF

Aéroports :

Farmington Regional Airport

Farmington, Missouri, États-Unis

latitude: 37-46N, longitude: 090-26W, altitude: 288 m

Observation

Le bulletin a été fait il y a 23 minutes, à 23:56 UTC
Vent 15 kt de nord/nord-ouest avec des rafales jusqu'à 20 kt
Température -4°C
Humidité 86%
Pression 1028 hPa
Visibilité: 6.4 km
Nuages fragmentés à une hauteur de 1500 ft
Ciel couvert à une hauteur de 2500 ft
neige faible, brume

METAR: KFAM 112356Z AUTO 33015G20KT 4SM -SN BR BKN015 OVC025 M04/M06 A3035 RMK AO2 SLP299 P0001 60014 T10441061 10006 21044 51034 FZRANO

Heure: 18:19 (00:19 UTC)


TAF: absent

Observations et prévisions météorologiques de plus de 4000 aéroports (messages METAR et TAF).

Les stations disponibles sont représentées par des disques jaunes et rouges sur la carte.

Passer la souris dessus pour voir le nom de la station.

Cliquer dessus pour voir les observations et prévisions météorologiques.

Pour changer de carte: cliquez sur les boutons verts avec une croix noire pour zoomer, sur le bouton vert avec un tiret pour effectuer un zoom arrière, ou sur les flèches vertes pour les cartes adjacentes.


METAR-TAF: